Time;durP1;ratioP1;P1;durP2;ratioP2;P2;SDS_P1;SDS_P2;PMS_P1;PMS_P2;Temp;Humidity;BMP_temperature;BMP_pressure;BME280_temperature;BME280_humidity;BME280_pressure;Samples;Min_cycle;Max_cycle;Signal;HPM_P1;HPM_P2
2021/12/04 00:00:49;;;;;;;14.18;10.23;;;;;;;3.13;99.58;99961.72;5028718;28;20025;-57
2021/12/04 00:03:14;;;;;;;12.80;9.90;;;;;;;3.14;99.68;99956.34;5027647;28;20050;-57
2021/12/04 00:05:44;;;;;;;12.65;9.85;;;;;;;3.13;99.13;99956.47;5030102;28;20029;-57
2021/12/04 00:08:10;;;;;;;13.65;10.35;;;;;;;3.11;99.49;99946.13;5019968;28;20492;-57
2021/12/04 00:10:35;;;;;;;14.20;9.70;;;;;;;3.11;99.46;99937.47;5029614;28;20068;-58
2021/12/04 00:13:00;;;;;;;13.18;10.27;;;;;;;3.09;99.30;99934.97;5029858;28;20030;-57
2021/12/04 00:15:26;;;;;;;13.10;9.70;;;;;;;3.09;99.16;99920.09;5020697;28;20029;-57
2021/12/04 00:17:51;;;;;;;12.13;9.32;;;;;;;3.12;99.42;99913.75;5028009;28;20037;-57
2021/12/04 00:20:16;;;;;;;13.02;9.45;;;;;;;3.13;99.34;99910.16;5016211;28;20088;-57
2021/12/04 00:22:42;;;;;;;15.32;9.40;;;;;;;3.12;99.48;99902.44;5025682;28;20033;-58
2021/12/04 00:25:08;;;;;;;11.52;9.15;;;;;;;3.11;99.49;99911.25;5030641;28;20038;-58
2021/12/04 00:27:35;;;;;;;14.10;9.55;;;;;;;3.12;99.04;99905.91;5029031;28;20087;-57
2021/12/04 00:30:00;;;;;;;12.57;9.30;;;;;;;3.16;99.03;99898.59;5015496;28;20064;-57
2021/12/04 00:32:34;;;;;;;11.20;8.73;;;;;;;3.14;99.01;99905.75;5024837;28;20065;-57
2021/12/04 00:35:34;;;;;;;11.63;8.88;;;;;;;3.15;98.62;99917.91;5026813;28;20370;-58
2021/12/04 00:51:16;;;;;;;11.38;8.75;;;;;;;3.18;99.04;99891.41;5021829;28;20059;-57
2021/12/04 00:53:42;;;;;;;10.93;8.65;;;;;;;3.19;99.13;99885.19;5019720;28;20038;-57
2021/12/04 00:56:07;;;;;;;10.57;8.65;;;;;;;3.19;98.93;99885.19;5023892;28;20092;-57
2021/12/04 00:58:33;;;;;;;11.77;8.63;;;;;;;3.23;98.95;99889.22;5026975;28;20761;-57
2021/12/04 01:00:58;;;;;;;11.35;9.50;;;;;;;3.21;98.94;99893.78;5015797;28;20033;-57
2021/12/04 01:03:24;;;;;;;12.80;9.00;;;;;;;3.21;98.59;99891.16;5020253;28;20129;-57
2021/12/04 01:05:49;;;;;;;13.68;9.80;;;;;;;3.21;99.21;99891.97;5028890;28;20064;-57
2021/12/04 01:08:15;;;;;;;14.93;10.27;;;;;;;3.22;99.06;99887.56;5016515;28;20104;-57
2021/12/04 01:10:40;;;;;;;13.38;9.38;;;;;;;3.21;98.90;99896.38;5032468;28;20037;-57
2021/12/04 01:13:11;;;;;;;12.35;9.45;;;;;;;3.23;98.97;99899.69;5018073;28;20431;-57
2021/12/04 01:15:37;;;;;;;12.05;9.77;;;;;;;3.23;99.00;99894.44;5026837;28;20091;-57
2021/12/04 01:18:03;;;;;;;11.68;10.00;;;;;;;3.24;98.52;99896.09;5022845;28;20045;-57
2021/12/04 01:20:28;;;;;;;11.80;9.50;;;;;;;3.25;98.74;99897.75;5017056;28;20384;-57
2021/12/04 01:22:53;;;;;;;12.73;9.82;;;;;;;3.23;98.99;99891.84;5020141;28;20037;-58
2021/12/04 01:25:18;;;;;;;13.82;10.25;;;;;;;3.26;98.38;99894.16;5021353;28;20033;-57
2021/12/04 01:27:46;;;;;;;11.82;9.82;;;;;;;3.28;98.62;99899.28;5026939;28;20052;-58
2021/12/04 01:30:12;;;;;;;12.88;9.85;;;;;;;3.29;98.88;99893.91;5027568;28;20118;-58
2021/12/04 01:32:37;;;;;;;11.30;9.43;;;;;;;3.28;98.86;99892.25;5020029;28;20096;-57
2021/12/04 01:35:04;;;;;;;12.68;9.90;;;;;;;3.28;98.68;99881.78;5017313;28;20073;-57
2021/12/04 01:37:29;;;;;;;13.25;9.95;;;;;;;3.29;99.17;99878.19;5027117;28;20475;-57
2021/12/04 01:39:54;;;;;;;12.10;9.82;;;;;;;3.29;99.08;99877.34;5029950;28;20033;-58
2021/12/04 01:42:23;;;;;;;12.48;9.52;;;;;;;3.29;98.63;99875.56;5023295;28;20123;-57
2021/12/04 01:44:49;;;;;;;11.48;9.60;;;;;;;3.29;99.07;99883.41;5017552;28;20057;-57
2021/12/04 01:47:16;;;;;;;11.65;9.77;;;;;;;3.28;98.89;99881.78;5018837;28;20083;-57
2021/12/04 01:49:41;;;;;;;13.07;9.93;;;;;;;3.31;98.61;99871.00;5021179;28;20040;-57
2021/12/04 01:52:08;;;;;;;12.43;9.40;;;;;;;3.31;99.00;99876.25;5025289;28;20034;-57
2021/12/04 01:54:35;;;;;;;11.35;8.98;;;;;;;3.31;99.20;99871.00;5024277;28;20048;-58
2021/12/04 01:57:02;;;;;;;12.45;9.57;;;;;;;3.33;99.24;99868.25;5022183;28;20036;-57
2021/12/04 01:59:29;;;;;;;13.13;9.52;;;;;;;3.34;98.74;99875.13;5018138;28;20040;-57
2021/12/04 02:01:56;;;;;;;12.65;9.30;;;;;;;3.31;98.62;99863.13;5019423;28;20037;-57
2021/12/04 02:04:21;;;;;;;11.95;9.25;;;;;;;3.34;98.75;99868.13;5020455;28;20026;-57
2021/12/04 02:06:47;;;;;;;11.63;9.60;;;;;;;3.33;98.64;99869.09;5018102;28;20037;-58
2021/12/04 02:09:12;;;;;;;13.15;9.65;;;;;;;3.33;98.71;99869.09;5016798;28;20041;-58
2021/12/04 02:11:37;;;;;;;13.40;10.23;;;;;;;3.34;98.51;99862.03;5028857;28;20037;-57
2021/12/04 02:14:03;;;;;;;11.07;9.55;;;;;;;3.35;98.93;99859.28;5018223;28;20033;-58
2021/12/04 02:16:28;;;;;;;11.13;9.73;;;;;;;3.36;98.96;99845.22;5021072;28;20046;-58
2021/12/04 02:18:53;;;;;;;11.25;9.70;;;;;;;3.36;99.08;99832.09;5031189;28;20029;-57
2021/12/04 02:21:19;;;;;;;12.65;9.88;;;;;;;3.35;98.68;99829.63;5021212;28;20030;-57
2021/12/04 02:23:44;;;;;;;13.05;10.05;;;;;;;3.33;99.09;99821.91;5028641;28;20022;-56
2021/12/04 02:26:11;;;;;;;12.93;9.98;;;;;;;3.32;98.64;99822.88;5023479;28;20142;-57
2021/12/04 02:28:37;;;;;;;13.48;10.10;;;;;;;3.33;99.15;99815.84;5018704;28;20124;-58
2021/12/04 02:31:02;;;;;;;13.10;10.07;;;;;;;3.32;99.14;99812.41;5021552;28;20113;-57
2021/12/04 02:33:27;;;;;;;15.20;10.40;;;;;;;3.35;99.14;99809.50;5023943;28;20037;-57
2021/12/04 02:35:55;;;;;;;12.95;10.30;;;;;;;3.33;99.30;99803.56;5025931;28;20041;-57
2021/12/04 02:38:23;;;;;;;15.98;10.80;;;;;;;3.34;98.73;99794.75;5013846;28;20655;-57
2021/12/04 02:40:51;;;;;;;13.30;10.57;;;;;;;3.35;98.75;99793.75;5016040;28;20488;-57
2021/12/04 02:43:16;;;;;;;16.13;10.50;;;;;;;3.35;98.77;99793.75;5013999;28;20109;-56
2021/12/04 02:45:43;;;;;;;14.35;10.18;;;;;;;3.38;98.50;99791.81;5022330;28;20136;-58
2021/12/04 02:48:08;;;;;;;15.48;10.82;;;;;;;3.39;98.77;99798.75;5026366;28;20033;-58
2021/12/04 02:50:34;;;;;;;14.65;10.07;;;;;;;3.38;98.35;99787.41;5020510;28;20037;-57
2021/12/04 02:52:59;;;;;;;15.38;9.98;;;;;;;3.39;98.77;99790.88;5026648;28;20033;-58
2021/12/04 02:55:25;;;;;;;14.63;9.95;;;;;;;3.38;98.04;99789.19;5026739;28;20573;-58
2021/12/04 02:57:50;;;;;;;14.45;10.18;;;;;;;3.38;98.42;99794.44;5021789;28;20140;-57
2021/12/04 03:00:19;;;;;;;15.35;10.40;;;;;;;3.39;98.70;99788.25;5027778;28;20036;-57
2021/12/04 03:02:45;;;;;;;12.88;9.65;;;;;;;3.39;98.22;99796.13;5027108;28;20050;-57
2021/12/04 03:05:11;;;;;;;12.60;9.82;;;;;;;3.39;98.24;99796.13;5030568;28;20029;-58
2021/12/04 03:07:38;;;;;;;12.77;9.80;;;;;;;3.41;98.28;99788.94;5023875;28;20084;-58
2021/12/04 03:10:06;;;;;;;13.70;10.15;;;;;;;3.40;98.28;99795.97;5025602;28;20026;-58
2021/12/04 03:12:32;;;;;;;11.95;9.90;;;;;;;3.38;98.35;99783.97;5025355;28;20025;-58
2021/12/04 03:14:57;;;;;;;13.90;10.23;;;;;;;3.36;98.34;99778.88;5018034;28;20033;-58
2021/12/04 03:17:23;;;;;;;13.43;10.20;;;;;;;3.35;98.53;99772.81;5025168;28;20440;-57
2021/12/04 03:19:50;;;;;;;12.63;10.20;;;;;;;3.36;98.21;99769.22;5022477;28;20401;-58
2021/12/04 03:22:17;;;;;;;12.75;9.70;;;;;;;3.36;98.12;99774.44;5021205;28;20030;-58
2021/12/04 03:24:43;;;;;;;13.23;9.75;;;;;;;3.35;98.13;99771.97;5024250;28;20079;-58
2021/12/04 03:27:08;;;;;;;12.02;9.65;;;;;;;3.36;98.50;99774.44;5020674;28;20053;-57
2021/12/04 03:29:39;;;;;;;13.68;9.68;;;;;;;3.36;98.79;99757.91;5025047;28;20068;-58
2021/12/04 03:40:09;;;;;;;10.98;8.45;;;;;;;3.32;98.26;99762.63;5023321;28;20056;-57
2021/12/04 03:42:36;;;;;;;10.25;8.35;;;;;;;3.33;98.55;99759.03;5024418;28;20030;-58
2021/12/04 03:45:04;;;;;;;8.57;7.65;;;;;;;3.33;98.50;99753.78;5022602;28;20042;-58
2021/12/04 03:47:30;;;;;;;10.65;7.63;;;;;;;3.31;98.57;99749.66;5018224;28;20022;-57
2021/12/04 03:49:56;;;;;;;9.82;7.75;;;;;;;3.29;98.42;99741.91;5018415;28;20366;-58
2021/12/04 03:52:21;;;;;;;9.25;7.80;;;;;;;3.30;98.00;99737.50;5026451;28;20032;-58
2021/12/04 03:54:47;;;;;;;9.32;7.55;;;;;;;3.33;98.23;99738.06;5022245;28;20029;-58
2021/12/04 03:57:12;;;;;;;10.95;7.45;;;;;;;3.35;98.30;99736.09;5030851;28;20033;-58
2021/12/04 03:59:46;;;;;;;8.10;6.90;;;;;;;3.33;98.52;99738.06;5030606;28;20030;-58
2021/12/04 04:02:13;;;;;;;8.30;6.97;;;;;;;3.33;98.44;99742.47;5021024;28;20153;-58
2021/12/04 04:04:39;;;;;;;8.45;6.63;;;;;;;3.36;98.60;99743.00;5021491;28;20029;-58
2021/12/04 04:07:05;;;;;;;6.88;6.18;;;;;;;3.36;98.52;99748.25;5024995;28;20029;-58
2021/12/04 04:09:31;;;;;;;10.02;6.57;;;;;;;3.38;98.45;99739.41;5021422;28;20072;-58
2021/12/04 04:11:57;;;;;;;7.57;6.60;;;;;;;3.40;98.10;99734.88;5014882;28;20430;-58
2021/12/04 04:14:24;;;;;;;7.43;6.38;;;;;;;3.38;98.58;99729.75;5016809;28;20045;-58
2021/12/04 04:16:50;;;;;;;8.68;6.32;;;;;;;3.40;97.84;99727.00;5022749;28;20037;-57
2021/12/04 04:19:15;;;;;;;9.35;6.20;;;;;;;3.42;97.98;99731.13;5026487;28;20049;-58
2021/12/04 04:21:43;;;;;;;6.60;5.88;;;;;;;3.43;98.19;99718.84;5029394;28;20489;-58
2021/12/04 04:24:11;;;;;;;6.60;5.90;;;;;;;3.43;98.24;99721.47;5016008;28;20057;-57
2021/12/04 04:26:37;;;;;;;6.72;5.70;;;;;;;3.43;98.43;99710.97;5027236;28;20099;-58
2021/12/04 04:29:04;;;;;;;6.25;5.65;;;;;;;3.44;98.14;99715.25;5027093;28;20121;-58
2021/12/04 04:31:30;;;;;;;6.60;5.90;;;;;;;3.44;98.39;99723.94;5025361;28;20026;-58
2021/12/04 04:34:04;;;;;;;6.65;5.95;;;;;;;3.44;98.31;99710.00;5024933;28;20030;-57
2021/12/04 04:39:45;;;;;;;6.53;5.70;;;;;;;3.42;97.86;99706.72;5018489;28;20038;-58
2021/12/04 05:12:12;;;;;;;7.18;5.10;;;;;;;3.43;98.38;99705.75;5026325;28;20039;-57
2021/12/04 05:14:40;;;;;;;6.28;5.20;;;;;;;3.40;97.75;99700.78;5021894;28;20037;-57
2021/12/04 05:17:13;;;;;;;7.45;5.03;;;;;;;3.42;98.41;99688.38;5021833;28;20092;-58
2021/12/04 05:19:42;;;;;;;5.63;5.03;;;;;;;3.42;98.00;99685.75;5016642;28;20049;-57
2021/12/04 05:22:10;;;;;;;5.10;4.60;;;;;;;3.38;98.22;99672.09;5026243;28;20026;-58
2021/12/04 05:24:35;;;;;;;5.75;4.70;;;;;;;3.38;97.97;99677.34;5019202;28;20105;-57
2021/12/04 05:27:00;;;;;;;5.00;4.50;;;;;;;3.40;98.03;99675.41;5020154;28;20100;-56
2021/12/04 05:29:26;;;;;;;7.40;4.97;;;;;;;3.39;98.68;99678.19;5019395;28;20461;-56
2021/12/04 05:31:51;;;;;;;5.40;4.70;;;;;;;3.41;98.27;99684.09;5022606;28;20032;-58
2021/12/04 05:34:16;;;;;;;5.65;4.85;;;;;;;3.39;98.18;99680.81;5026040;28;20022;-58
2021/12/04 05:36:42;;;;;;;5.47;4.53;;;;;;;3.41;98.49;99681.47;5021905;28;20053;-57
2021/12/04 05:39:07;;;;;;;6.22;4.50;;;;;;;3.39;97.77;99680.81;5019972;28;20027;-57
2021/12/04 05:41:33;;;;;;;5.22;4.50;;;;;;;3.37;98.31;99686.19;5016491;28;20025;-57
2021/12/04 05:44:04;;;;;;;4.55;4.15;;;;;;;3.37;98.21;99680.94;5014051;28;20084;-57
2021/12/04 05:46:35;;;;;;;5.82;4.90;;;;;;;3.40;98.56;99679.84;5017617;28;20026;-58
2021/12/04 05:49:05;;;;;;;5.80;5.20;;;;;;;3.36;98.23;99680.09;5013702;28;20030;-57
2021/12/04 05:51:45;;;;;;;6.18;4.97;;;;;;;3.37;98.10;99675.69;5019247;28;20039;-58
2021/12/04 05:56:55;;;;;;;6.38;5.22;;;;;;;3.40;97.90;99667.53;5024052;28;20048;-57
2021/12/04 05:59:20;;;;;;;7.07;5.25;;;;;;;3.40;97.79;99666.72;5017101;28;20034;-58
2021/12/04 06:01:46;;;;;;;6.60;5.30;;;;;;;3.37;98.34;99670.47;5021334;28;20084;-57
2021/12/04 06:04:11;;;;;;;7.72;5.13;;;;;;;3.38;97.92;99666.88;5025609;28;20033;-57
2021/12/04 06:06:36;;;;;;;5.78;4.80;;;;;;;3.38;98.14;99673.88;5022883;28;20034;-58
2021/12/04 06:09:03;;;;;;;7.10;5.10;;;;;;;3.41;97.71;99671.00;5019525;28;20087;-58
2021/12/04 06:11:29;;;;;;;5.95;4.88;;;;;;;3.43;97.66;99669.03;5016512;28;20145;-57
2021/12/04 06:13:56;;;;;;;7.20;4.70;;;;;;;3.41;98.09;99665.75;5028988;28;20049;-57
2021/12/04 06:16:21;;;;;;;5.95;4.82;;;;;;;3.44;98.01;99649.72;5023151;28;20057;-56
2021/12/04 06:18:47;;;;;;;6.55;5.00;;;;;;;3.46;98.40;99653.84;5021545;28;20417;-58
2021/12/04 06:23:57;;;;;;;9.73;6.63;;;;;;;3.47;97.83;99652.06;5022541;28;20458;-57
2021/12/04 06:26:23;;;;;;;15.15;8.55;;;;;;;3.46;97.97;99653.03;5021933;28;20096;-58
2021/12/04 06:28:48;;;;;;;12.15;7.50;;;;;;;3.44;98.06;99650.56;5025052;28;20026;-57
2021/12/04 06:31:14;;;;;;;10.55;6.95;;;;;;;3.45;98.26;99656.66;5019674;28;20099;-57
2021/12/04 06:33:41;;;;;;;9.63;6.47;;;;;;;3.46;98.36;99663.53;5023501;28;20037;-58
2021/12/04 06:36:07;;;;;;;6.70;5.53;;;;;;;3.46;97.79;99660.91;5023779;28;20653;-57
2021/12/04 06:38:34;;;;;;;6.90;5.38;;;;;;;3.48;98.46;99664.19;5025622;28;20054;-57
2021/12/04 06:40:59;;;;;;;5.88;5.07;;;;;;;3.48;98.57;99661.59;5024033;28;20109;-57
2021/12/04 06:43:25;;;;;;;6.85;5.13;;;;;;;3.48;97.88;99658.97;5025095;28;20108;-58
2021/12/04 06:46:01;;;;;;;5.72;4.97;;;;;;;3.51;98.28;99666.56;5023954;28;20534;-58
2021/12/04 06:48:37;;;;;;;7.47;5.15;;;;;;;3.47;98.22;99668.59;5023537;28;20037;-57
2021/12/04 06:51:31;;;;;;;6.97;4.68;;;;;;;3.48;97.85;99664.19;5031693;28;20033;-58
2021/12/04 06:56:23;;;;;;;5.88;4.95;;;;;;;3.49;97.57;99671.94;5021467;28;19913;-58
2021/12/04 06:58:48;;;;;;;5.88;4.90;;;;;;;3.48;98.14;99678.16;5025187;28;20037;-58
2021/12/04 07:01:14;;;;;;;6.10;5.10;;;;;;;3.50;98.07;99680.59;5018226;28;20069;-58
2021/12/04 07:03:40;;;;;;;6.65;5.30;;;;;;;3.48;97.94;99672.06;5027108;28;20465;-57
2021/12/04 07:06:06;;;;;;;7.13;5.35;;;;;;;3.52;97.92;99678.69;5030161;28;20469;-57
2021/12/04 07:08:32;;;;;;;7.70;5.32;;;;;;;3.53;98.23;99663.75;5030208;28;20025;-57
2021/12/04 07:10:57;;;;;;;6.40;5.03;;;;;;;3.53;97.96;99659.34;5028115;28;20120;-57
2021/12/04 07:13:22;;;;;;;7.05;5.22;;;;;;;3.55;98.71;99661.84;5023901;28;20393;-55
2021/12/04 07:15:58;;;;;;;9.80;5.65;;;;;;;3.54;97.72;99666.25;5022745;28;20041;-58
2021/12/04 07:18:23;;;;;;;8.57;5.72;;;;;;;3.56;98.34;99664.28;5024582;28;20087;-58
2021/12/04 07:20:48;;;;;;;8.68;6.07;;;;;;;3.54;98.25;99663.63;5023318;28;20465;-59
2021/12/04 07:23:14;;;;;;;7.68;5.65;;;;;;;3.56;97.86;99659.06;5018645;28;20113;-55
2021/12/04 07:25:39;;;;;;;8.35;5.72;;;;;;;3.53;98.23;99656.75;5020023;28;20096;-58
2021/12/04 07:28:04;;;;;;;8.02;5.78;;;;;;;3.51;97.69;99658.69;5021277;28;20029;-58
2021/12/04 07:30:30;;;;;;;11.68;6.15;;;;;;;3.53;98.15;99654.13;5023309;28;20046;-56
2021/12/04 07:32:55;;;;;;;7.10;5.50;;;;;;;3.55;98.91;99657.41;5025003;28;20033;-57
2021/12/04 07:35:21;;;;;;;7.88;5.63;;;;;;;3.54;98.00;99655.75;5019573;28;20034;-58
2021/12/04 07:37:46;;;;;;;8.35;5.95;;;;;;;3.54;98.20;99654.94;5025850;28;20092;-57
2021/12/04 07:40:12;;;;;;;8.23;5.68;;;;;;;3.53;98.43;99661.97;5029498;28;20405;-58
2021/12/04 07:42:37;;;;;;;9.35;6.05;;;;;;;3.53;98.09;99659.34;5027447;28;20493;-61
2021/12/04 07:45:05;;;;;;;8.00;5.70;;;;;;;3.56;98.57;99645.13;5026570;28;20030;-59
2021/12/04 07:47:30;;;;;;;9.40;5.65;;;;;;;3.58;98.52;99654.50;5020099;28;20037;-58
2021/12/04 07:49:56;;;;;;;7.35;5.53;;;;;;;3.59;98.30;99648.28;5020100;28;20038;-58
2021/12/04 07:52:21;;;;;;;9.38;5.43;;;;;;;3.59;98.29;99653.53;5022012;28;20095;-57
2021/12/04 07:54:48;;;;;;;7.30;5.60;;;;;;;3.59;98.07;99645.66;5026082;28;20484;-57
2021/12/04 07:57:14;;;;;;;8.18;5.72;;;;;;;3.59;97.90;99648.28;5021379;28;20480;-57
2021/12/04 07:59:39;;;;;;;7.93;5.60;;;;;;;3.60;97.91;99642.06;5018930;28;20025;-58
2021/12/04 08:02:04;;;;;;;9.45;5.57;;;;;;;3.59;97.92;99637.81;5027255;28;20504;-57
2021/12/04 08:04:30;;;;;;;7.35;5.85;;;;;;;3.63;98.32;99639.19;5028498;28;20587;-57
2021/12/04 08:06:55;;;;;;;8.43;5.88;;;;;;;3.67;97.84;99642.31;5025522;28;20065;-57
2021/12/04 08:09:21;;;;;;;11.40;6.32;;;;;;;3.68;98.34;99636.09;5033479;28;20029;-57
2021/12/04 08:11:49;;;;;;;9.75;6.43;;;;;;;3.67;97.58;99644.09;5022476;28;20100;-57
2021/12/04 08:14:15;;;;;;;10.45;6.95;;;;;;;3.68;98.17;99635.28;5030993;28;20049;-57
2021/12/04 08:16:40;;;;;;;10.55;6.40;;;;;;;3.70;98.07;99628.09;5014555;28;20073;-58
2021/12/04 08:19:07;;;;;;;10.73;6.40;;;;;;;3.71;97.71;99619.25;5014418;28;20041;-58
2021/12/04 08:21:32;;;;;;;9.95;6.13;;;;;;;3.73;97.99;99617.31;5027281;28;20519;-55
2021/12/04 08:23:57;;;;;;;10.90;6.60;;;;;;;3.79;98.19;99611.47;5017302;28;20054;-58
2021/12/04 08:26:23;;;;;;;8.77;6.55;;;;;;;3.81;98.03;99613.94;5030733;28;20112;-58
2021/12/04 08:28:51;;;;;;;9.43;6.45;;;;;;;3.79;98.21;99606.22;5032185;28;20076;-58
2021/12/04 08:31:16;;;;;;;9.27;6.80;;;;;;;3.82;98.50;99602.47;5022842;28;20108;-58
2021/12/04 08:33:42;;;;;;;10.82;7.35;;;;;;;3.81;97.96;99601.69;5025054;28;20116;-57
2021/12/04 08:36:07;;;;;;;10.75;7.63;;;;;;;3.80;98.26;99597.38;5019853;28;20030;-57
2021/12/04 08:38:35;;;;;;;10.68;7.55;;;;;;;3.80;97.76;99602.63;5020051;28;20026;-57
2021/12/04 08:41:02;;;;;;;9.65;6.90;;;;;;;3.82;97.76;99592.84;5020927;28;20029;-57
2021/12/04 08:43:27;;;;;;;9.32;6.65;;;;;;;3.82;98.24;99595.44;5028702;28;20056;-57
2021/12/04 08:45:53;;;;;;;8.88;6.30;;;;;;;3.81;97.74;99588.56;5021703;28;20061;-57
2021/12/04 08:48:18;;;;;;;9.32;6.32;;;;;;;3.77;97.85;99582.75;5029430;28;20047;-58
2021/12/04 08:50:44;;;;;;;7.55;5.78;;;;;;;3.78;97.90;99578.34;5027402;28;20091;-58
2021/12/04 08:53:10;;;;;;;7.65;5.80;;;;;;;3.82;97.67;99574.47;5020504;28;20071;-58
2021/12/04 08:55:38;;;;;;;7.30;5.75;;;;;;;3.81;97.79;99572.84;5021565;28;20052;-57
2021/12/04 08:58:05;;;;;;;8.48;6.57;;;;;;;3.81;97.61;99567.59;5014744;28;20026;-57
2021/12/04 09:00:37;;;;;;;9.15;6.03;;;;;;;3.81;98.45;99575.44;5013550;28;20037;-58
2021/12/04 09:03:04;;;;;;;8.32;5.68;;;;;;;3.87;98.14;99581.88;5017169;28;20045;-58
2021/12/04 09:05:30;;;;;;;11.93;6.60;;;;;;;3.86;97.80;99581.06;5025382;28;20091;-59
2021/12/04 09:07:56;;;;;;;13.10;7.07;;;;;;;3.90;97.68;99592.91;5024175;28;20028;-58
2021/12/04 09:10:22;;;;;;;12.23;7.47;;;;;;;3.90;97.69;99587.66;5021214;28;20105;-58
2021/12/04 09:12:48;;;;;;;8.75;6.18;;;;;;;3.94;97.54;99582.13;5022138;28;20049;-58
2021/12/04 09:15:19;;;;;;;11.00;6.88;;;;;;;3.94;97.60;99587.38;5021415;28;20476;-58
2021/12/04 09:17:45;;;;;;;8.38;6.25;;;;;;;3.94;98.04;99575.06;5030888;28;20523;-58
2021/12/04 09:20:12;;;;;;;12.40;6.45;;;;;;;3.97;97.51;99573.94;5019357;28;20041;-58
2021/12/04 09:22:38;;;;;;;13.07;8.13;;;;;;;3.97;97.66;99572.16;5025329;28;20034;-59
2021/12/04 09:25:06;;;;;;;12.70;8.25;;;;;;;4.01;98.00;99551.69;5013002;28;20030;-57
2021/12/04 09:35:40;;;;;;;12.43;7.50;;;;;;;4.12;97.54;99556.72;5024671;28;20042;-58
2021/12/04 09:40:25;;;;;;;11.07;7.35;;;;;;;4.13;96.83;99550.50;5012972;28;20038;-58
2021/12/04 10:22:29;;;;;;;14.98;9.20;;;;;;;4.09;97.28;99532.59;5025605;28;20490;-58
2021/12/04 10:32:02;;;;;;;12.57;8.20;;;;;;;4.08;96.88;99521.25;5026192;28;20046;-57
2021/12/04 10:32:09;;;;;;;15.27;9.02;;;;;;;4.09;97.51;99522.91;5018410;28;20041;-58
2021/12/04 10:33:41;;;;;;;15.45;8.80;;;;;;;4.11;96.69;99509.63;5012402;28;20658;-58
2021/12/04 10:36:06;;;;;;;14.10;9.05;;;;;;;4.11;97.35;99493.88;5028717;28;20033;-57
2021/12/04 10:38:39;;;;;;;15.70;8.98;;;;;;;4.11;97.47;99499.13;5016663;28;20040;-57
2021/12/04 10:41:05;;;;;;;;;;;;;;;4.19;96.89;99493.13;5018085;28;20033;-58
2021/12/04 10:43:31;;;;;;;18.77;10.20;;;;;;;4.17;96.99;99491.50;5022691;28;19928;-58
2021/12/04 10:46:10;;;;;;;21.88;11.43;;;;;;;4.21;97.60;99484.13;5029971;28;20038;-57
2021/12/04 10:48:37;;;;;;;21.67;11.45;;;;;;;4.23;97.18;99487.41;5023551;28;21108;-58
2021/12/04 10:51:21;;;;;;;21.30;10.90;;;;;;;4.23;96.71;99476.09;5027684;28;20527;-58
2021/12/04 10:53:50;;;;;;;17.27;9.65;;;;;;;4.27;96.98;99472.19;5027103;28;20033;-58
2021/12/04 10:56:36;;;;;;;19.25;10.82;;;;;;;4.27;96.83;99469.56;5030301;28;20456;-58
2021/12/04 10:59:26;;;;;;;17.02;10.35;;;;;;;4.26;97.08;99467.91;5030386;28;20037;-58
2021/12/04 11:02:06;;;;;;;16.42;9.63;;;;;;;4.26;96.76;99449.56;5026555;28;20431;-58
2021/12/04 11:04:54;;;;;;;14.90;9.18;;;;;;;4.27;97.48;99443.31;5022998;28;20417;-57
2021/12/04 11:07:49;;;;;;;14.35;9.45;;;;;;;4.33;96.97;99434.81;5013788;28;20026;-55
2021/12/04 11:18:58;;;;;;;13.98;9.27;;;;;;;4.43;97.00;99419.78;5016182;28;20439;-58
2021/12/04 11:25:09;;;;;;;13.27;9.02;;;;;;;4.49;96.98;99417.53;5026552;28;20041;-58
2021/12/04 11:38:19;;;;;;;12.50;8.90;;;;;;;4.67;96.85;99415.63;5018248;28;20034;-58
2021/12/04 11:41:01;;;;;;;13.07;8.50;;;;;;;4.69;97.14;99411.03;5032059;28;20090;-58
2021/12/04 11:43:41;;;;;;;13.68;8.25;;;;;;;4.69;96.70;99404.97;5024201;28;20113;-58
2021/12/04 11:46:19;;;;;;;16.85;9.05;;;;;;;4.69;95.92;99397.91;5014900;28;20022;-58
2021/12/04 11:48:44;;;;;;;15.35;9.05;;;;;;;4.71;96.53;99403.84;5025535;28;20037;-58
2021/12/04 11:51:19;;;;;;;20.00;11.32;;;;;;;4.68;96.75;99396.28;5022794;28;20033;-58
2021/12/04 11:53:45;;;;;;;18.75;10.40;;;;;;;4.68;96.30;99398.91;5035303;28;20120;-58
2021/12/04 11:56:17;;;;;;;16.83;9.85;;;;;;;4.69;96.62;99386.59;5033800;28;20029;-58
2021/12/04 11:58:45;;;;;;;12.48;9.20;;;;;;;4.67;96.47;99386.75;5017383;28;20144;-58
2021/12/04 12:01:24;;;;;;;10.77;8.50;;;;;;;4.69;96.20;99387.41;5025541;28;20037;-58
2021/12/04 12:03:55;;;;;;;15.43;9.43;;;;;;;4.70;95.86;99383.00;5018132;28;20504;-57
2021/12/04 12:06:39;;;;;;;14.68;9.52;;;;;;;4.73;96.46;99381.84;5027640;28;20056;-58
2021/12/04 12:09:09;;;;;;;18.10;11.40;;;;;;;4.69;95.65;99374.28;5020213;28;20022;-58
2021/12/04 12:11:35;;;;;;;12.48;9.60;;;;;;;4.70;96.71;99381.16;5014119;28;20026;-58
2021/12/04 12:14:11;;;;;;;15.52;10.20;;;;;;;4.74;96.24;99384.28;5031061;28;20033;-58
2021/12/04 12:16:52;;;;;;;13.27;10.00;;;;;;;4.75;96.80;99379.88;5014968;28;20056;-58
2021/12/04 12:19:26;;;;;;;14.32;10.15;;;;;;;4.74;95.70;99378.22;5027543;28;20032;-58
2021/12/04 12:22:39;;;;;;;16.10;10.80;;;;;;;4.69;96.67;99369.03;5016262;28;20038;-58
2021/12/04 12:27:41;;;;;;;20.25;13.23;;;;;;;4.73;96.19;99371.34;5015356;28;20069;-58
2021/12/04 12:33:24;;;;;;;13.25;9.60;;;;;;;4.69;96.59;99381.34;5030511;28;20691;-58
2021/12/04 12:38:49;;;;;;;13.00;9.50;;;;;;;4.64;96.67;99373.94;5025486;28;20049;-56
2021/12/04 12:41:30;;;;;;;13.85;9.57;;;;;;;4.63;97.38;99376.72;5024184;28;20021;-58
2021/12/04 12:44:14;;;;;;;14.27;9.30;;;;;;;4.65;97.90;99388.72;5024304;28;20017;-58
2021/12/04 12:46:45;;;;;;;14.15;9.95;;;;;;;4.61;97.59;99379.50;5028601;28;20108;-58
2021/12/04 12:49:22;;;;;;;15.50;10.57;;;;;;;4.64;97.79;99383.63;5017182;28;20087;-57
2021/12/04 12:51:59;;;;;;;14.95;10.50;;;;;;;4.62;98.00;99381.16;5028778;28;20053;-56
2021/12/04 12:54:38;;;;;;;15.70;11.30;;;;;;;4.63;98.28;99382.78;5028267;28;20465;-55
2021/12/04 12:57:09;;;;;;;20.45;13.77;;;;;;;4.59;99.04;99376.19;5027082;28;20055;-55
2021/12/04 12:59:57;;;;;;;21.85;14.20;;;;;;;4.62;99.00;99373.28;5023767;28;20037;-56
2021/12/04 13:13:50;;;;;;;21.73;15.70;;;;;;;4.61;99.26;99358.50;5028392;28;20136;-58
2021/12/04 13:16:28;;;;;;;22.83;15.52;;;;;;;4.61;98.83;99358.50;5029268;28;20113;-58
2021/12/04 13:18:58;;;;;;;23.02;16.15;;;;;;;4.66;98.87;99365.91;5029317;28;20084;-58
2021/12/04 13:21:24;;;;;;;25.95;16.42;;;;;;;4.64;98.89;99362.63;5025547;28;20577;-59
2021/12/04 13:23:53;;;;;;;21.85;15.32;;;;;;;4.63;99.33;99355.72;5031037;28;20048;-57
2021/12/04 13:26:18;;;;;;;19.50;13.73;;;;;;;4.68;99.10;99353.41;5025074;28;20026;-59
2021/12/04 13:28:49;;;;;;;20.20;14.07;;;;;;;4.67;98.74;99360.50;5028971;28;20040;-59
2021/12/04 13:31:16;;;;;;;20.40;14.25;;;;;;;4.70;98.71;99354.09;5029799;28;20692;-59
2021/12/04 13:33:47;;;;;;;19.00;13.23;;;;;;;4.71;98.23;99359.19;5024406;28;20485;-59
2021/12/04 13:36:20;;;;;;;20.20;13.85;;;;;;;4.71;98.77;99353.94;5029620;28;20065;-59
2021/12/04 13:38:50;;;;;;;18.40;13.15;;;;;;;4.74;98.79;99357.22;5025221;28;20562;-59
2021/12/04 13:41:15;;;;;;;18.85;13.15;;;;;;;4.77;98.54;99351.63;5027387;28;20088;-59
2021/12/04 13:43:41;;;;;;;19.30;13.38;;;;;;;4.74;98.16;99351.97;5023134;28;20033;-58
2021/12/04 13:46:07;;;;;;;17.67;12.48;;;;;;;4.71;97.97;99358.38;5026017;28;20035;-59
2021/12/04 13:48:34;;;;;;;18.52;12.43;;;;;;;4.74;98.67;99349.34;5024370;28;20384;-59
2021/12/04 13:51:00;;;;;;;18.58;12.98;;;;;;;4.75;98.04;99353.63;5026481;28;20037;-59
2021/12/04 13:53:32;;;;;;;18.55;12.57;;;;;;;4.80;98.13;99362.63;5029918;28;20492;-58
2021/12/04 13:56:03;;;;;;;18.02;12.93;;;;;;;4.74;99.17;99351.97;5020255;28;20079;-59
2021/12/04 13:58:28;;;;;;;19.25;12.32;;;;;;;4.76;98.03;99350.84;5027063;28;20051;-59
2021/12/04 14:00:54;;;;;;;18.45;12.30;;;;;;;4.78;97.77;99353.31;5022474;28;20033;-59
2021/12/04 14:03:22;;;;;;;19.35;12.65;;;;;;;4.74;98.62;99346.72;5022879;28;20041;-59
2021/12/04 14:05:47;;;;;;;20.38;13.38;;;;;;;4.76;98.66;99350.84;5028119;28;20021;-59
2021/12/04 14:08:13;;;;;;;19.15;13.00;;;;;;;4.75;98.47;99343.94;5027539;28;20076;-58
2021/12/04 14:10:41;;;;;;;18.52;12.90;;;;;;;4.79;97.90;99357.56;5021914;28;20065;-59
2021/12/04 14:13:09;;;;;;;20.73;13.65;;;;;;;4.76;99.12;99355.25;5021225;28;20025;-59
2021/12/04 14:15:35;;;;;;;18.02;13.05;;;;;;;4.80;98.15;99356.59;5028404;28;20120;-59
2021/12/04 14:18:09;;;;;;;21.52;12.88;;;;;;;4.81;97.99;99353.81;5026400;28;20076;-59